sensor_id;sensor_type;location;lat;lon;timestamp;P1;durP1;ratioP1;P2;durP2;ratioP2
75148;SDS011;63724;47.470;19.166;2023-03-08T00:01:49;28.40;;;14.13;;
75148;SDS011;63724;47.470;19.166;2023-03-08T00:04:55;29.48;;;13.50;;
75148;SDS011;63724;47.470;19.166;2023-03-08T00:07:58;27.85;;;12.38;;
75148;SDS011;63724;47.470;19.166;2023-03-08T00:11:03;26.47;;;13.37;;
75148;SDS011;63724;47.470;19.166;2023-03-08T00:14:09;23.13;;;13.17;;
75148;SDS011;63724;47.470;19.166;2023-03-08T00:17:12;24.83;;;12.77;;
75148;SDS011;63724;47.470;19.166;2023-03-08T00:20:14;29.70;;;14.77;;
75148;SDS011;63724;47.470;19.166;2023-03-08T00:23:16;31.52;;;14.18;;
75148;SDS011;63724;47.470;19.166;2023-03-08T00:26:19;28.17;;;13.97;;
75148;SDS011;63724;47.470;19.166;2023-03-08T00:29:21;30.93;;;16.07;;
75148;SDS011;63724;47.470;19.166;2023-03-08T00:32:24;32.60;;;16.00;;
75148;SDS011;63724;47.470;19.166;2023-03-08T00:35:28;26.85;;;13.75;;
75148;SDS011;63724;47.470;19.166;2023-03-08T00:38:31;28.90;;;14.32;;
75148;SDS011;63724;47.470;19.166;2023-03-08T00:41:36;25.23;;;14.43;;
75148;SDS011;63724;47.470;19.166;2023-03-08T00:44:38;24.30;;;14.03;;
75148;SDS011;63724;47.470;19.166;2023-03-08T00:47:40;26.20;;;13.43;;
75148;SDS011;63724;47.470;19.166;2023-03-08T00:50:43;29.60;;;14.38;;
75148;SDS011;63724;47.470;19.166;2023-03-08T00:53:46;27.15;;;13.48;;
75148;SDS011;63724;47.470;19.166;2023-03-08T00:56:49;25.33;;;12.63;;
75148;SDS011;63724;47.470;19.166;2023-03-08T00:59:52;27.10;;;14.33;;
75148;SDS011;63724;47.470;19.166;2023-03-08T01:02:56;26.92;;;13.75;;
75148;SDS011;63724;47.470;19.166;2023-03-08T01:06:05;27.73;;;14.07;;
75148;SDS011;63724;47.470;19.166;2023-03-08T01:09:09;27.77;;;13.73;;
75148;SDS011;63724;47.470;19.166;2023-03-08T01:12:13;24.60;;;13.00;;
75148;SDS011;63724;47.470;19.166;2023-03-08T01:15:15;26.27;;;14.03;;
75148;SDS011;63724;47.470;19.166;2023-03-08T01:18:18;28.73;;;14.23;;
75148;SDS011;63724;47.470;19.166;2023-03-08T01:21:21;30.55;;;14.90;;
75148;SDS011;63724;47.470;19.166;2023-03-08T01:24:24;27.30;;;14.80;;
75148;SDS011;63724;47.470;19.166;2023-03-08T01:27:26;25.67;;;13.17;;
75148;SDS011;63724;47.470;19.166;2023-03-08T01:30:28;32.40;;;14.60;;
75148;SDS011;63724;47.470;19.166;2023-03-08T01:33:31;29.00;;;14.98;;
75148;SDS011;63724;47.470;19.166;2023-03-08T01:36:33;24.13;;;14.25;;
75148;SDS011;63724;47.470;19.166;2023-03-08T01:39:35;25.92;;;13.98;;
75148;SDS011;63724;47.470;19.166;2023-03-08T01:42:38;28.23;;;14.20;;
75148;SDS011;63724;47.470;19.166;2023-03-08T01:49:20;27.88;;;14.07;;
75148;SDS011;63724;47.470;19.166;2023-03-08T01:52:28;25.55;;;13.20;;
75148;SDS011;63724;47.470;19.166;2023-03-08T01:55:42;27.17;;;14.13;;
75148;SDS011;63724;47.470;19.166;2023-03-08T01:58:45;22.73;;;12.87;;
75148;SDS011;63724;47.470;19.166;2023-03-08T02:01:50;24.70;;;12.30;;
75148;SDS011;63724;47.470;19.166;2023-03-08T02:04:54;26.60;;;13.88;;
75148;SDS011;63724;47.470;19.166;2023-03-08T02:07:56;25.17;;;13.00;;
75148;SDS011;63724;47.470;19.166;2023-03-08T02:11:03;25.80;;;13.38;;
75148;SDS011;63724;47.470;19.166;2023-03-08T02:14:07;24.23;;;13.20;;
75148;SDS011;63724;47.470;19.166;2023-03-08T02:17:10;32.50;;;16.23;;
75148;SDS011;63724;47.470;19.166;2023-03-08T02:20:23;32.75;;;15.85;;
75148;SDS011;63724;47.470;19.166;2023-03-08T02:23:29;28.70;;;15.25;;
75148;SDS011;63724;47.470;19.166;2023-03-08T02:26:32;30.40;;;15.68;;
75148;SDS011;63724;47.470;19.166;2023-03-08T02:29:36;29.23;;;15.90;;
75148;SDS011;63724;47.470;19.166;2023-03-08T02:32:38;41.47;;;20.13;;
75148;SDS011;63724;47.470;19.166;2023-03-08T02:35:41;34.05;;;16.00;;
75148;SDS011;63724;47.470;19.166;2023-03-08T02:38:46;29.30;;;15.55;;
75148;SDS011;63724;47.470;19.166;2023-03-08T02:41:48;33.92;;;15.63;;
75148;SDS011;63724;47.470;19.166;2023-03-08T02:44:50;37.80;;;18.07;;
75148;SDS011;63724;47.470;19.166;2023-03-08T02:47:53;35.97;;;17.80;;
75148;SDS011;63724;47.470;19.166;2023-03-08T02:50:55;37.78;;;19.38;;
75148;SDS011;63724;47.470;19.166;2023-03-08T02:53:58;37.58;;;17.95;;
75148;SDS011;63724;47.470;19.166;2023-03-08T02:57:00;35.78;;;18.55;;
75148;SDS011;63724;47.470;19.166;2023-03-08T03:00:03;37.37;;;19.87;;
75148;SDS011;63724;47.470;19.166;2023-03-08T03:03:07;36.10;;;18.80;;
75148;SDS011;63724;47.470;19.166;2023-03-08T03:06:16;36.67;;;18.35;;
75148;SDS011;63724;47.470;19.166;2023-03-08T03:09:24;37.22;;;18.40;;
75148;SDS011;63724;47.470;19.166;2023-03-08T03:12:28;36.25;;;18.73;;
75148;SDS011;63724;47.470;19.166;2023-03-08T03:15:31;40.27;;;19.33;;
75148;SDS011;63724;47.470;19.166;2023-03-08T03:18:34;32.27;;;17.60;;
75148;SDS011;63724;47.470;19.166;2023-03-08T03:21:37;37.47;;;18.27;;
75148;SDS011;63724;47.470;19.166;2023-03-08T03:24:40;34.58;;;17.60;;
75148;SDS011;63724;47.470;19.166;2023-03-08T03:27:43;40.63;;;18.23;;
75148;SDS011;63724;47.470;19.166;2023-03-08T03:30:46;34.87;;;16.90;;
75148;SDS011;63724;47.470;19.166;2023-03-08T03:33:49;30.63;;;16.93;;
75148;SDS011;63724;47.470;19.166;2023-03-08T03:36:52;36.58;;;18.02;;
75148;SDS011;63724;47.470;19.166;2023-03-08T03:39:55;35.75;;;18.92;;
75148;SDS011;63724;47.470;19.166;2023-03-08T03:42:58;36.15;;;18.25;;
75148;SDS011;63724;47.470;19.166;2023-03-08T03:46:02;33.67;;;17.07;;
75148;SDS011;63724;47.470;19.166;2023-03-08T03:49:06;36.67;;;16.97;;
75148;SDS011;63724;47.470;19.166;2023-03-08T03:52:13;34.33;;;16.83;;
75148;SDS011;63724;47.470;19.166;2023-03-08T03:55:23;35.67;;;17.98;;
75148;SDS011;63724;47.470;19.166;2023-03-08T03:58:26;37.38;;;17.35;;
75148;SDS011;63724;47.470;19.166;2023-03-08T04:01:29;34.10;;;18.20;;
75148;SDS011;63724;47.470;19.166;2023-03-08T04:04:39;34.87;;;16.97;;
75148;SDS011;63724;47.470;19.166;2023-03-08T04:07:42;36.25;;;16.98;;
75148;SDS011;63724;47.470;19.166;2023-03-08T04:10:45;33.97;;;17.58;;
75148;SDS011;63724;47.470;19.166;2023-03-08T04:13:48;37.10;;;17.00;;
75148;SDS011;63724;47.470;19.166;2023-03-08T04:16:53;31.07;;;16.13;;
75148;SDS011;63724;47.470;19.166;2023-03-08T04:20:02;34.63;;;16.83;;
75148;SDS011;63724;47.470;19.166;2023-03-08T04:23:11;35.05;;;16.98;;
75148;SDS011;63724;47.470;19.166;2023-03-08T04:26:16;34.70;;;17.08;;
75148;SDS011;63724;47.470;19.166;2023-03-08T04:29:19;33.42;;;16.77;;
75148;SDS011;63724;47.470;19.166;2023-03-08T04:32:21;33.70;;;17.07;;
75148;SDS011;63724;47.470;19.166;2023-03-08T04:35:29;34.33;;;16.60;;
75148;SDS011;63724;47.470;19.166;2023-03-08T04:38:32;32.53;;;17.55;;
75148;SDS011;63724;47.470;19.166;2023-03-08T04:41:36;34.90;;;19.05;;
75148;SDS011;63724;47.470;19.166;2023-03-08T04:45:08;33.05;;;15.63;;
75148;SDS011;63724;47.470;19.166;2023-03-08T04:48:11;37.90;;;17.27;;
75148;SDS011;63724;47.470;19.166;2023-03-08T04:51:14;36.30;;;18.43;;
75148;SDS011;63724;47.470;19.166;2023-03-08T04:54:18;39.65;;;18.33;;
75148;SDS011;63724;47.470;19.166;2023-03-08T04:57:29;34.67;;;17.88;;
75148;SDS011;63724;47.470;19.166;2023-03-08T05:00:33;35.72;;;17.45;;
75148;SDS011;63724;47.470;19.166;2023-03-08T05:03:36;35.07;;;18.27;;
75148;SDS011;63724;47.470;19.166;2023-03-08T05:06:39;34.93;;;18.63;;
75148;SDS011;63724;47.470;19.166;2023-03-08T05:09:43;36.35;;;17.58;;
75148;SDS011;63724;47.470;19.166;2023-03-08T05:12:47;35.13;;;17.42;;
75148;SDS011;63724;47.470;19.166;2023-03-08T05:15:51;35.90;;;16.90;;
75148;SDS011;63724;47.470;19.166;2023-03-08T05:18:54;34.97;;;18.23;;
75148;SDS011;63724;47.470;19.166;2023-03-08T05:22:00;34.60;;;17.70;;
75148;SDS011;63724;47.470;19.166;2023-03-08T05:25:04;35.58;;;17.30;;
75148;SDS011;63724;47.470;19.166;2023-03-08T05:28:07;34.70;;;17.20;;
75148;SDS011;63724;47.470;19.166;2023-03-08T05:31:11;33.72;;;17.17;;
75148;SDS011;63724;47.470;19.166;2023-03-08T05:34:18;33.00;;;18.03;;
75148;SDS011;63724;47.470;19.166;2023-03-08T05:37:22;36.43;;;17.07;;
75148;SDS011;63724;47.470;19.166;2023-03-08T05:40:29;34.53;;;16.38;;
75148;SDS011;63724;47.470;19.166;2023-03-08T05:43:34;32.97;;;16.67;;
75148;SDS011;63724;47.470;19.166;2023-03-08T05:46:39;32.53;;;15.52;;
75148;SDS011;63724;47.470;19.166;2023-03-08T05:49:43;30.87;;;16.10;;
75148;SDS011;63724;47.470;19.166;2023-03-08T05:52:46;32.80;;;16.60;;
75148;SDS011;63724;47.470;19.166;2023-03-08T05:55:53;30.10;;;15.82;;
75148;SDS011;63724;47.470;19.166;2023-03-08T05:58:58;28.77;;;16.08;;
75148;SDS011;63724;47.470;19.166;2023-03-08T06:02:02;31.52;;;15.70;;
75148;SDS011;63724;47.470;19.166;2023-03-08T06:05:18;36.17;;;17.07;;
75148;SDS011;63724;47.470;19.166;2023-03-08T06:08:23;30.77;;;16.17;;
75148;SDS011;63724;47.470;19.166;2023-03-08T06:11:25;34.95;;;17.33;;
75148;SDS011;63724;47.470;19.166;2023-03-08T06:14:30;37.33;;;17.52;;
75148;SDS011;63724;47.470;19.166;2023-03-08T06:17:33;37.05;;;16.85;;
75148;SDS011;63724;47.470;19.166;2023-03-08T06:20:40;34.07;;;18.20;;
75148;SDS011;63724;47.470;19.166;2023-03-08T06:23:43;33.93;;;18.37;;
75148;SDS011;63724;47.470;19.166;2023-03-08T06:26:46;30.73;;;16.65;;
75148;SDS011;63724;47.470;19.166;2023-03-08T06:33:59;40.60;;;17.08;;
75148;SDS011;63724;47.470;19.166;2023-03-08T06:37:02;34.20;;;18.07;;
75148;SDS011;63724;47.470;19.166;2023-03-08T06:40:05;36.30;;;17.20;;
75148;SDS011;63724;47.470;19.166;2023-03-08T06:43:10;34.63;;;16.58;;
75148;SDS011;63724;47.470;19.166;2023-03-08T06:46:14;35.20;;;17.23;;
75148;SDS011;63724;47.470;19.166;2023-03-08T06:49:20;44.05;;;18.13;;
75148;SDS011;63724;47.470;19.166;2023-03-08T06:52:23;32.63;;;17.53;;
75148;SDS011;63724;47.470;19.166;2023-03-08T06:55:26;37.30;;;17.20;;
75148;SDS011;63724;47.470;19.166;2023-03-08T06:58:29;33.05;;;16.35;;
75148;SDS011;63724;47.470;19.166;2023-03-08T07:01:32;31.90;;;17.67;;
75148;SDS011;63724;47.470;19.166;2023-03-08T07:04:34;31.70;;;16.40;;
75148;SDS011;63724;47.470;19.166;2023-03-08T07:07:37;30.03;;;16.77;;
75148;SDS011;63724;47.470;19.166;2023-03-08T07:10:41;32.60;;;16.87;;
75148;SDS011;63724;47.470;19.166;2023-03-08T07:13:43;36.33;;;17.48;;
75148;SDS011;63724;47.470;19.166;2023-03-08T07:17:07;37.17;;;17.92;;
75148;SDS011;63724;47.470;19.166;2023-03-08T07:20:09;31.08;;;15.63;;
75148;SDS011;63724;47.470;19.166;2023-03-08T07:23:14;31.00;;;16.03;;
75148;SDS011;63724;47.470;19.166;2023-03-08T07:26:16;34.63;;;16.97;;
75148;SDS011;63724;47.470;19.166;2023-03-08T07:29:18;29.52;;;16.00;;
75148;SDS011;63724;47.470;19.166;2023-03-08T07:32:21;33.05;;;17.08;;
75148;SDS011;63724;47.470;19.166;2023-03-08T07:35:24;31.70;;;16.88;;
75148;SDS011;63724;47.470;19.166;2023-03-08T07:38:27;36.97;;;17.77;;
75148;SDS011;63724;47.470;19.166;2023-03-08T07:41:29;48.80;;;20.50;;
75148;SDS011;63724;47.470;19.166;2023-03-08T07:44:33;72.88;;;26.70;;
75148;SDS011;63724;47.470;19.166;2023-03-08T07:47:38;90.63;;;32.05;;
75148;SDS011;63724;47.470;19.166;2023-03-08T07:50:42;72.63;;;26.92;;
75148;SDS011;63724;47.470;19.166;2023-03-08T07:53:45;37.57;;;18.20;;
75148;SDS011;63724;47.470;19.166;2023-03-08T07:56:48;35.67;;;15.70;;
75148;SDS011;63724;47.470;19.166;2023-03-08T07:59:51;34.92;;;17.83;;
75148;SDS011;63724;47.470;19.166;2023-03-08T08:02:55;43.30;;;21.08;;
75148;SDS011;63724;47.470;19.166;2023-03-08T08:06:00;34.38;;;18.23;;
75148;SDS011;63724;47.470;19.166;2023-03-08T08:09:05;34.07;;;17.40;;
75148;SDS011;63724;47.470;19.166;2023-03-08T08:12:09;267.20;;;104.57;;
75148;SDS011;63724;47.470;19.166;2023-03-08T08:15:11;40.20;;;19.48;;
75148;SDS011;63724;47.470;19.166;2023-03-08T08:18:14;36.20;;;17.05;;
75148;SDS011;63724;47.470;19.166;2023-03-08T08:21:16;29.80;;;16.60;;
75148;SDS011;63724;47.470;19.166;2023-03-08T08:24:18;35.53;;;14.97;;
75148;SDS011;63724;47.470;19.166;2023-03-08T08:27:21;29.53;;;15.90;;
75148;SDS011;63724;47.470;19.166;2023-03-08T08:30:23;30.95;;;15.68;;
75148;SDS011;63724;47.470;19.166;2023-03-08T08:33:29;29.52;;;14.73;;
75148;SDS011;63724;47.470;19.166;2023-03-08T08:36:32;28.70;;;16.27;;
75148;SDS011;63724;47.470;19.166;2023-03-08T08:39:34;29.60;;;16.57;;
75148;SDS011;63724;47.470;19.166;2023-03-08T08:42:36;33.30;;;16.07;;
75148;SDS011;63724;47.470;19.166;2023-03-08T08:45:46;28.52;;;15.63;;
75148;SDS011;63724;47.470;19.166;2023-03-08T08:48:50;31.85;;;15.10;;
75148;SDS011;63724;47.470;19.166;2023-03-08T08:51:52;26.92;;;14.95;;
75148;SDS011;63724;47.470;19.166;2023-03-08T08:54:55;28.87;;;15.63;;
75148;SDS011;63724;47.470;19.166;2023-03-08T08:57:59;30.53;;;15.20;;
75148;SDS011;63724;47.470;19.166;2023-03-08T09:01:02;28.08;;;14.90;;
75148;SDS011;63724;47.470;19.166;2023-03-08T09:04:04;28.05;;;14.15;;
75148;SDS011;63724;47.470;19.166;2023-03-08T09:07:07;28.30;;;14.32;;
75148;SDS011;63724;47.470;19.166;2023-03-08T09:10:09;28.03;;;14.80;;
75148;SDS011;63724;47.470;19.166;2023-03-08T09:13:12;25.13;;;13.80;;
75148;SDS011;63724;47.470;19.166;2023-03-08T09:16:18;24.73;;;13.77;;
75148;SDS011;63724;47.470;19.166;2023-03-08T09:19:22;20.42;;;12.60;;
75148;SDS011;63724;47.470;19.166;2023-03-08T09:22:25;27.50;;;12.90;;
75148;SDS011;63724;47.470;19.166;2023-03-08T09:25:27;26.07;;;13.00;;
75148;SDS011;63724;47.470;19.166;2023-03-08T09:28:30;28.33;;;12.27;;
75148;SDS011;63724;47.470;19.166;2023-03-08T09:31:33;25.13;;;12.52;;
75148;SDS011;63724;47.470;19.166;2023-03-08T09:34:37;24.67;;;12.52;;
75148;SDS011;63724;47.470;19.166;2023-03-08T09:37:39;24.65;;;12.57;;
75148;SDS011;63724;47.470;19.166;2023-03-08T09:40:47;21.37;;;11.53;;
75148;SDS011;63724;47.470;19.166;2023-03-08T09:56:50;21.97;;;10.87;;
75148;SDS011;63724;47.470;19.166;2023-03-08T09:59:54;20.87;;;9.87;;
75148;SDS011;63724;47.470;19.166;2023-03-08T10:16:39;19.67;;;9.77;;
75148;SDS011;63724;47.470;19.166;2023-03-08T10:19:47;18.67;;;9.70;;
75148;SDS011;63724;47.470;19.166;2023-03-08T10:23:00;16.20;;;9.90;;
75148;SDS011;63724;47.470;19.166;2023-03-08T10:26:07;20.77;;;9.75;;
75148;SDS011;63724;47.470;19.166;2023-03-08T10:29:11;17.17;;;8.30;;
75148;SDS011;63724;47.470;19.166;2023-03-08T10:32:14;16.43;;;9.10;;
75148;SDS011;63724;47.470;19.166;2023-03-08T10:35:17;21.17;;;11.07;;
75148;SDS011;63724;47.470;19.166;2023-03-08T10:38:33;16.02;;;9.07;;
75148;SDS011;63724;47.470;19.166;2023-03-08T10:42:12;14.05;;;7.75;;
75148;SDS011;63724;47.470;19.166;2023-03-08T10:45:22;13.97;;;8.27;;
75148;SDS011;63724;47.470;19.166;2023-03-08T10:48:26;14.97;;;7.97;;
75148;SDS011;63724;47.470;19.166;2023-03-08T10:51:30;14.68;;;8.15;;
75148;SDS011;63724;47.470;19.166;2023-03-08T10:54:32;14.00;;;7.55;;
75148;SDS011;63724;47.470;19.166;2023-03-08T10:57:36;15.35;;;7.60;;
75148;SDS011;63724;47.470;19.166;2023-03-08T11:00:39;13.77;;;7.60;;
75148;SDS011;63724;47.470;19.166;2023-03-08T11:04:11;12.27;;;6.80;;
75148;SDS011;63724;47.470;19.166;2023-03-08T11:07:59;13.52;;;7.18;;
75148;SDS011;63724;47.470;19.166;2023-03-08T11:11:18;15.55;;;6.72;;
75148;SDS011;63724;47.470;19.166;2023-03-08T11:14:24;15.30;;;7.47;;
75148;SDS011;63724;47.470;19.166;2023-03-08T11:17:49;16.43;;;6.90;;
75148;SDS011;63724;47.470;19.166;2023-03-08T11:26:08;13.80;;;6.70;;
75148;SDS011;63724;47.470;19.166;2023-03-08T11:36:18;13.47;;;6.23;;
75148;SDS011;63724;47.470;19.166;2023-03-08T11:53:31;11.57;;;6.57;;
75148;SDS011;63724;47.470;19.166;2023-03-08T11:56:46;10.53;;;5.93;;
75148;SDS011;63724;47.470;19.166;2023-03-08T11:59:55;11.88;;;6.10;;
75148;SDS011;63724;47.470;19.166;2023-03-08T12:07:39;11.00;;;5.60;;
75148;SDS011;63724;47.470;19.166;2023-03-08T12:11:15;11.37;;;5.60;;
75148;SDS011;63724;47.470;19.166;2023-03-08T12:14:25;9.43;;;5.10;;
75148;SDS011;63724;47.470;19.166;2023-03-08T12:17:39;7.68;;;4.85;;
75148;SDS011;63724;47.470;19.166;2023-03-08T12:20:43;7.95;;;4.68;;
75148;SDS011;63724;47.470;19.166;2023-03-08T12:23:50;9.20;;;5.20;;
75148;SDS011;63724;47.470;19.166;2023-03-08T12:27:23;11.00;;;5.20;;
75148;SDS011;63724;47.470;19.166;2023-03-08T12:34:11;14.52;;;6.25;;
75148;SDS011;63724;47.470;19.166;2023-03-08T12:37:25;15.27;;;6.20;;
75148;SDS011;63724;47.470;19.166;2023-03-08T12:40:34;13.85;;;6.22;;
75148;SDS011;63724;47.470;19.166;2023-03-08T12:43:58;14.90;;;6.23;;
75148;SDS011;63724;47.470;19.166;2023-03-08T12:50:15;20.42;;;6.07;;
75148;SDS011;63724;47.470;19.166;2023-03-08T12:56:49;19.25;;;7.03;;
75148;SDS011;63724;47.470;19.166;2023-03-08T12:59:56;12.33;;;6.50;;
75148;SDS011;63724;47.470;19.166;2023-03-08T13:03:23;10.93;;;5.60;;
75148;SDS011;63724;47.470;19.166;2023-03-08T13:19:48;7.80;;;4.70;;
75148;SDS011;63724;47.470;19.166;2023-03-08T13:30:23;7.75;;;4.32;;
75148;SDS011;63724;47.470;19.166;2023-03-08T13:33:41;8.33;;;4.57;;
75148;SDS011;63724;47.470;19.166;2023-03-08T13:36:48;11.07;;;3.73;;
75148;SDS011;63724;47.470;19.166;2023-03-08T13:39:53;6.75;;;3.50;;
75148;SDS011;63724;47.470;19.166;2023-03-08T13:43:02;6.70;;;3.17;;
75148;SDS011;63724;47.470;19.166;2023-03-08T13:46:09;6.50;;;2.50;;
75148;SDS011;63724;47.470;19.166;2023-03-08T13:49:30;5.00;;;3.27;;
75148;SDS011;63724;47.470;19.166;2023-03-08T13:52:35;8.37;;;3.23;;
75148;SDS011;63724;47.470;19.166;2023-03-08T13:55:46;7.85;;;3.70;;
75148;SDS011;63724;47.470;19.166;2023-03-08T13:59:34;6.10;;;3.17;;
75148;SDS011;63724;47.470;19.166;2023-03-08T14:02:49;8.65;;;4.38;;
75148;SDS011;63724;47.470;19.166;2023-03-08T14:06:02;6.70;;;3.60;;
75148;SDS011;63724;47.470;19.166;2023-03-08T14:09:11;9.63;;;3.70;;
75148;SDS011;63724;47.470;19.166;2023-03-08T14:12:15;8.90;;;3.70;;
75148;SDS011;63724;47.470;19.166;2023-03-08T14:15:23;8.40;;;3.38;;
75148;SDS011;63724;47.470;19.166;2023-03-08T14:18:39;16.23;;;3.90;;
75148;SDS011;63724;47.470;19.166;2023-03-08T14:21:50;6.30;;;3.30;;
75148;SDS011;63724;47.470;19.166;2023-03-08T14:24:59;6.90;;;3.47;;
75148;SDS011;63724;47.470;19.166;2023-03-08T14:28:03;8.35;;;3.65;;
75148;SDS011;63724;47.470;19.166;2023-03-08T14:34:29;13.75;;;3.75;;
75148;SDS011;63724;47.470;19.166;2023-03-08T14:37:35;9.23;;;3.63;;
75148;SDS011;63724;47.470;19.166;2023-03-08T14:40:43;5.23;;;3.43;;
75148;SDS011;63724;47.470;19.166;2023-03-08T14:43:47;6.07;;;3.55;;
75148;SDS011;63724;47.470;19.166;2023-03-08T14:46:50;5.55;;;3.30;;
75148;SDS011;63724;47.470;19.166;2023-03-08T14:50:13;9.48;;;3.60;;
75148;SDS011;63724;47.470;19.166;2023-03-08T14:53:39;6.47;;;3.50;;
75148;SDS011;63724;47.470;19.166;2023-03-08T14:56:42;7.43;;;2.93;;
75148;SDS011;63724;47.470;19.166;2023-03-08T14:59:46;7.63;;;4.03;;
75148;SDS011;63724;47.470;19.166;2023-03-08T15:02:48;7.55;;;4.18;;
75148;SDS011;63724;47.470;19.166;2023-03-08T15:05:52;11.77;;;3.67;;
75148;SDS011;63724;47.470;19.166;2023-03-08T15:08:55;6.03;;;3.53;;
75148;SDS011;63724;47.470;19.166;2023-03-08T15:11:58;7.97;;;3.47;;
75148;SDS011;63724;47.470;19.166;2023-03-08T15:15:08;7.15;;;3.53;;
75148;SDS011;63724;47.470;19.166;2023-03-08T15:18:14;9.32;;;3.55;;
75148;SDS011;63724;47.470;19.166;2023-03-08T15:21:19;8.95;;;3.70;;
75148;SDS011;63724;47.470;19.166;2023-03-08T15:24:24;6.07;;;3.53;;
75148;SDS011;63724;47.470;19.166;2023-03-08T15:27:27;5.73;;;3.40;;
75148;SDS011;63724;47.470;19.166;2023-03-08T15:30:31;11.45;;;4.55;;
75148;SDS011;63724;47.470;19.166;2023-03-08T15:33:33;8.65;;;4.22;;
75148;SDS011;63724;47.470;19.166;2023-03-08T15:36:36;10.98;;;4.57;;
75148;SDS011;63724;47.470;19.166;2023-03-08T15:39:39;8.33;;;4.50;;
75148;SDS011;63724;47.470;19.166;2023-03-08T15:43:13;10.60;;;4.00;;
75148;SDS011;63724;47.470;19.166;2023-03-08T15:46:16;11.40;;;3.40;;
75148;SDS011;63724;47.470;19.166;2023-03-08T15:49:23;10.00;;;3.75;;
75148;SDS011;63724;47.470;19.166;2023-03-08T15:52:27;8.88;;;4.32;;
75148;SDS011;63724;47.470;19.166;2023-03-08T15:55:31;8.23;;;3.97;;
75148;SDS011;63724;47.470;19.166;2023-03-08T15:58:34;7.30;;;3.30;;
75148;SDS011;63724;47.470;19.166;2023-03-08T16:01:36;11.88;;;4.43;;
75148;SDS011;63724;47.470;19.166;2023-03-08T16:04:39;10.60;;;4.40;;
75148;SDS011;63724;47.470;19.166;2023-03-08T16:07:51;9.00;;;4.70;;
75148;SDS011;63724;47.470;19.166;2023-03-08T16:10:55;9.13;;;4.40;;
75148;SDS011;63724;47.470;19.166;2023-03-08T16:14:01;11.13;;;4.70;;
75148;SDS011;63724;47.470;19.166;2023-03-08T16:17:03;9.38;;;4.80;;
75148;SDS011;63724;47.470;19.166;2023-03-08T16:20:08;13.48;;;4.90;;
75148;SDS011;63724;47.470;19.166;2023-03-08T16:23:11;8.98;;;5.05;;
75148;SDS011;63724;47.470;19.166;2023-03-08T16:26:14;9.77;;;4.63;;
75148;SDS011;63724;47.470;19.166;2023-03-08T16:29:18;9.10;;;4.53;;
75148;SDS011;63724;47.470;19.166;2023-03-08T16:32:21;10.43;;;5.80;;
75148;SDS011;63724;47.470;19.166;2023-03-08T16:35:23;8.75;;;4.38;;
75148;SDS011;63724;47.470;19.166;2023-03-08T16:38:26;10.45;;;5.10;;
75148;SDS011;63724;47.470;19.166;2023-03-08T16:41:28;9.37;;;4.87;;
75148;SDS011;63724;47.470;19.166;2023-03-08T16:44:31;11.83;;;5.00;;
75148;SDS011;63724;47.470;19.166;2023-03-08T16:47:33;11.23;;;5.13;;
75148;SDS011;63724;47.470;19.166;2023-03-08T16:50:36;15.10;;;5.80;;
75148;SDS011;63724;47.470;19.166;2023-03-08T16:53:39;12.48;;;4.60;;
75148;SDS011;63724;47.470;19.166;2023-03-08T16:56:41;9.27;;;4.73;;
75148;SDS011;63724;47.470;19.166;2023-03-08T16:59:45;7.43;;;4.50;;
75148;SDS011;63724;47.470;19.166;2023-03-08T17:02:48;13.38;;;5.00;;
75148;SDS011;63724;47.470;19.166;2023-03-08T17:05:50;7.03;;;4.30;;
75148;SDS011;63724;47.470;19.166;2023-03-08T17:08:53;8.05;;;4.28;;
75148;SDS011;63724;47.470;19.166;2023-03-08T17:11:55;7.70;;;4.30;;
75148;SDS011;63724;47.470;19.166;2023-03-08T17:14:57;9.43;;;3.90;;
75148;SDS011;63724;47.470;19.166;2023-03-08T17:18:00;7.97;;;4.30;;
75148;SDS011;63724;47.470;19.166;2023-03-08T17:21:03;10.07;;;3.75;;
75148;SDS011;63724;47.470;19.166;2023-03-08T17:24:07;11.80;;;4.15;;
75148;SDS011;63724;47.470;19.166;2023-03-08T17:27:10;8.33;;;4.27;;
75148;SDS011;63724;47.470;19.166;2023-03-08T17:30:13;9.67;;;4.07;;
75148;SDS011;63724;47.470;19.166;2023-03-08T17:33:15;9.50;;;4.25;;
75148;SDS011;63724;47.470;19.166;2023-03-08T17:36:18;8.88;;;4.28;;
75148;SDS011;63724;47.470;19.166;2023-03-08T17:39:21;7.13;;;4.47;;
75148;SDS011;63724;47.470;19.166;2023-03-08T17:42:23;10.37;;;4.77;;
75148;SDS011;63724;47.470;19.166;2023-03-08T17:45:26;6.80;;;4.33;;
75148;SDS011;63724;47.470;19.166;2023-03-08T17:48:30;9.90;;;4.70;;
75148;SDS011;63724;47.470;19.166;2023-03-08T17:51:32;9.38;;;4.63;;
75148;SDS011;63724;47.470;19.166;2023-03-08T17:54:39;11.57;;;4.38;;
75148;SDS011;63724;47.470;19.166;2023-03-08T17:57:41;8.70;;;4.67;;
75148;SDS011;63724;47.470;19.166;2023-03-08T18:00:44;12.00;;;5.17;;
75148;SDS011;63724;47.470;19.166;2023-03-08T18:03:46;10.82;;;4.80;;
75148;SDS011;63724;47.470;19.166;2023-03-08T18:06:49;9.02;;;4.53;;
75148;SDS011;63724;47.470;19.166;2023-03-08T18:09:52;11.98;;;4.70;;
75148;SDS011;63724;47.470;19.166;2023-03-08T18:12:54;10.70;;;4.87;;
75148;SDS011;63724;47.470;19.166;2023-03-08T18:15:56;11.57;;;4.57;;
75148;SDS011;63724;47.470;19.166;2023-03-08T18:18:59;9.13;;;5.03;;
75148;SDS011;63724;47.470;19.166;2023-03-08T18:22:03;8.38;;;4.43;;
75148;SDS011;63724;47.470;19.166;2023-03-08T18:25:06;12.15;;;4.75;;
75148;SDS011;63724;47.470;19.166;2023-03-08T18:28:09;7.23;;;4.97;;
75148;SDS011;63724;47.470;19.166;2023-03-08T18:31:16;10.27;;;5.90;;
75148;SDS011;63724;47.470;19.166;2023-03-08T18:34:21;9.45;;;4.53;;
75148;SDS011;63724;47.470;19.166;2023-03-08T18:37:23;11.65;;;5.57;;
75148;SDS011;63724;47.470;19.166;2023-03-08T18:40:26;13.30;;;5.88;;
75148;SDS011;63724;47.470;19.166;2023-03-08T18:43:30;8.87;;;5.87;;
75148;SDS011;63724;47.470;19.166;2023-03-08T18:46:33;13.87;;;5.93;;
75148;SDS011;63724;47.470;19.166;2023-03-08T18:49:36;12.38;;;5.70;;
75148;SDS011;63724;47.470;19.166;2023-03-08T18:52:39;11.95;;;5.90;;
75148;SDS011;63724;47.470;19.166;2023-03-08T18:55:51;10.05;;;6.20;;
75148;SDS011;63724;47.470;19.166;2023-03-08T18:59:01;11.80;;;6.00;;
75148;SDS011;63724;47.470;19.166;2023-03-08T19:02:04;11.43;;;6.30;;
75148;SDS011;63724;47.470;19.166;2023-03-08T19:05:07;11.90;;;6.15;;
75148;SDS011;63724;47.470;19.166;2023-03-08T19:08:10;12.43;;;5.68;;
75148;SDS011;63724;47.470;19.166;2023-03-08T19:11:16;9.02;;;5.63;;
75148;SDS011;63724;47.470;19.166;2023-03-08T19:14:19;11.70;;;5.97;;
75148;SDS011;63724;47.470;19.166;2023-03-08T19:17:22;9.87;;;6.20;;
75148;SDS011;63724;47.470;19.166;2023-03-08T19:20:24;9.10;;;6.13;;
75148;SDS011;63724;47.470;19.166;2023-03-08T19:23:27;12.90;;;6.22;;
75148;SDS011;63724;47.470;19.166;2023-03-08T19:26:30;10.70;;;6.35;;
75148;SDS011;63724;47.470;19.166;2023-03-08T19:29:37;9.90;;;6.33;;
75148;SDS011;63724;47.470;19.166;2023-03-08T19:32:40;11.17;;;6.00;;
75148;SDS011;63724;47.470;19.166;2023-03-08T19:35:43;12.27;;;5.93;;
75148;SDS011;63724;47.470;19.166;2023-03-08T19:38:46;10.35;;;6.30;;
75148;SDS011;63724;47.470;19.166;2023-03-08T19:41:49;10.88;;;6.72;;